PTKR  Koror, Palau, NWS Office Airport

Add Bookmark

Federated States of Micronesia

Status
Operational
Latitude Longitude
7° 19' 48" N 134° 28' 47" E
7.330000 134.480000
Local (DST + 9) UTC (GMT + 9)
Mar 1, 2015 02:22 Feb 28, 2015 17:22
Sunrise-Sunset Local UTC
Begin Civil Twilight 05:53 20:53
Sunrise 06:14 21:14
Sunset 06:15 09:15
End Civil Twilight 06:36 09:36

Current Weather

METAR Observed VFR
PTKR 281651Z 00000KT 15SM FEW017 BKN110 OVC280 26/23 A2982 Sat, Feb 28, 2015 @ 16:51 UTC
(31 Minutes ago)
Visual Flight Rules
Wind Visibility Clouds Conditions
Calm 24000 meters
  • Few at 1,700' AGL
  • Broken at 11,000' AGL
  • Overcast at 28,000' AGL
  • No significant weather
Temperatures Readings Precipitation
Current Temp 26°C (79°F)
Dewpoint 23°C (73°F)
Humidity 84%
Altimeter 29.82"Hg
Sea Level Pressure 1009.7mb
Field Elevation 98.43'
None Recorded

Additional weather within a 92.6km radius of PTKR

Map ICAO Location
PTRO 8.1km N (360°)

24 Hour Weather History

Loading
-

24 Hour Weather Graphs

Loading
-

CheckWX.com is intended as a tool to help pilots better visualize weather data. It is not intended as a substitute for an official weather briefing obtained from a Flight Service Station. CheckWX.com does not meet the FAA requirements for an official pre-flight weather briefing. Therefore, it's important that pilots still call and obtain an official FSS pre-flight weather briefing.